Terminal Aerodrome Forecast
Issued by NWS

Home | Current Version | Previous Version | Text Only | Print | Product List | Glossary Off
Versions: 1 2 3 4 5 6 7 8 9 10 11 12

000
FTUS45 KGGW 262320
TAFGDV
TAF
KGDV 262320Z 2700/2724 29010KT P6SM VCSH BKN090
     FM270300 31006KT P6SM BKN080
     FM272100 21009KT P6SM FEW120=

USA.gov is the U.S. government's official web portal to all federal, state and local government web resources and services.